KGSP/GSP METAR and TAF weather

Enter ICAO airport designator
Station Type Date Time Source
KGSP METAR 2020/09/18 15:53 UTC NOAA

KGSP 181553Z 02011G18KT 10SM CLR 25/17 A2996 RMK AO2 SLP136 T02500172


Station Type Date Time Source
KGSP Decoded METAR 2020/09/18 15:53 UTC NOAA

GREER GREENVILLE SPARTBURG, SC, United States (KGSP) 34-53N 82-13W 286M
Sep 18, 2020 - 11:53 AM EDT / 2020.09.18 1553 UTC
Wind: from the NNE (020 degrees) at 13 MPH (11 KT) gusting to 21 MPH (18 KT):0
Visibility: 10 mile(s):0
Sky conditions: clear
Temperature: 77.0 F (25.0 C)
Dew Point: 63.0 F (17.2 C)
Relative Humidity: 61%
Pressure (altimeter): 29.96 in. Hg (1014 hPa)
ob: KGSP 181553Z 02011G18KT 10SM CLR 25/17 A2996 RMK AO2 SLP136 T02500172
cycle: 16

Station Type Date Time Source
KGSP TAF 2020/09/18 12:27 UTC NOAA

TAF KGSP 181124Z 1812/1912 02011KT P6SM OVC035
FM181400 02011G19KT P6SM SCT045 BKN070
FM190000 03008KT P6SM FEW050 BKN250
FM190600 03011KT P6SM BKN050

Example: see airport list